Time;durP1;ratioP1;P1;durP2;ratioP2;P2;SDS_P1;SDS_P2;PMS_P1;PMS_P2;Temp;Humidity;BMP_temperature;BMP_pressure;BME280_temperature;BME280_humidity;BME280_pressure;Samples;Min_cycle;Max_cycle;Signal;HPM_P1;HPM_P2
2022/04/18 14:53:50;;;;;;;;;4.00;4.00;;;;;28.68;16.07;101069.59;5159707;27;45488;-59
2022/04/18 14:56:15;;;;;;;;;4.75;4.75;;;;;28.65;16.22;101075.50;5116695;27;45438;-58
2022/04/18 14:58:41;;;;;;;;;4.00;4.00;;;;;28.64;15.67;101060.00;5117166;27;45482;-60
2022/04/18 15:01:07;;;;;;;;;5.00;5.00;;;;;28.58;15.73;101065.16;5115936;27;45411;-60
2022/04/18 15:03:32;;;;;;;;;3.25;3.00;;;;;28.63;15.48;101070.16;5116514;27;46076;-59
2022/04/18 15:05:57;;;;;;;;;3.25;3.25;;;;;28.65;15.86;101065.34;5116107;27;45314;-59
2022/04/18 15:08:23;;;;;;;;;3.50;3.25;;;;;28.48;15.84;101058.16;5117100;27;45337;-59
2022/04/18 15:10:48;;;;;;;;;2.50;1.25;;;;;28.48;16.40;101059.03;5116605;27;45462;-61
2022/04/18 15:13:13;;;;;;;;;4.00;3.00;;;;;28.56;15.26;101053.47;5116604;27;46169;-60
2022/04/18 15:15:39;;;;;;;;;4.00;3.25;;;;;28.73;15.64;101058.91;5116155;27;45226;-60
2022/04/18 15:18:04;;;;;;;;;4.50;2.50;;;;;28.83;15.77;101054.91;5116605;27;45663;-62
2022/04/18 15:20:30;;;;;;;;;2.25;1.75;;;;;28.94;15.33;101061.91;5116191;27;45385;-58
2022/04/18 15:22:55;;;;;;;;;3.75;3.75;;;;;28.88;15.03;101052.47;5116084;27;45186;-58
2022/04/18 15:25:20;;;;;;;;;2.50;2.00;;;;;28.73;15.53;101056.16;5115979;27;45613;-58
2022/04/18 15:27:46;;;;;;;;;2.75;2.75;;;;;28.31;15.38;101062.03;5116281;27;45222;-58
2022/04/18 15:32:55;;;;;;;;;3.00;3.00;;;;;27.72;16.83;101054.03;5116347;27;45320;-59
2022/04/18 15:35:22;;;;;;;;;3.00;3.00;;;;;27.30;16.03;101048.69;5116400;27;45325;-58
2022/04/18 15:37:48;;;;;;;;;3.00;3.00;;;;;27.20;16.51;101055.38;5116424;27;45402;-60
2022/04/18 15:40:15;;;;;;;;;2.50;2.50;;;;;27.13;17.25;101063.47;5115260;27;45485;-58
2022/04/18 15:42:40;;;;;;;;;2.25;2.25;;;;;27.13;16.86;101051.59;5115321;27;45657;-59
2022/04/18 15:45:05;;;;;;;;;4.50;3.50;;;;;27.14;16.00;101048.63;5115861;27;45486;-59
2022/04/18 15:47:31;;;;;;;;;5.50;4.00;;;;;27.07;16.79;101051.22;5114747;27;45600;-59
2022/04/18 15:49:56;;;;;;;;;4.00;3.50;;;;;26.94;16.16;101050.00;5115597;27;45397;-60
2022/04/18 15:52:22;;;;;;;;;3.25;3.25;;;;;26.84;16.33;101050.13;5114611;27;46178;-58
2022/04/18 15:54:47;;;;;;;;;2.75;2.75;;;;;26.74;16.96;101049.38;5100771;27;45424;-60
2022/04/18 15:57:13;;;;;;;;;2.00;2.00;;;;;26.68;17.05;101044.56;5102271;27;45343;-59
2022/04/18 15:59:38;;;;;;;;;2.00;2.00;;;;;26.65;16.40;101043.00;5101505;27;45446;-60
2022/04/18 16:02:03;;;;;;;;;4.50;2.75;;;;;26.65;16.15;101048.50;5100716;27;45419;-59
2022/04/18 16:04:29;;;;;;;;;3.00;3.00;;;;;26.56;16.72;101040.38;5101669;27;45207;-59
2022/04/18 16:06:54;;;;;;;;;3.75;3.75;;;;;26.51;16.17;101032.66;5101720;27;45319;-60
2022/04/18 16:09:19;;;;;;;;;1.75;1.75;;;;;26.46;16.45;101051.53;5101344;27;45227;-60
2022/04/18 16:11:45;;;;;;;;;1.50;1.50;;;;;26.38;16.70;101054.22;5101879;27;46194;-59
2022/04/18 16:14:10;;;;;;;;;3.00;3.00;;;;;26.29;17.01;101050.59;5100971;27;45313;-60
2022/04/18 16:16:38;;;;;;;;;2.50;2.50;;;;;26.12;15.64;101048.75;5101112;27;45267;-59
2022/04/18 16:19:04;;;;;;;;;4.00;3.00;;;;;25.85;16.44;101046.19;5101056;27;45405;-59
2022/04/18 16:21:30;;;;;;;;;2.25;2.25;;;;;25.75;16.82;101045.44;5101119;27;45442;-59
2022/04/18 16:23:57;;;;;;;;;2.00;2.00;;;;;25.72;17.10;101051.25;5101301;27;45351;-59
2022/04/18 16:26:24;;;;;;;;;2.75;2.75;;;;;25.73;16.71;101045.59;5101708;27;45332;-60
2022/04/18 16:28:50;;;;;;;;;2.00;2.00;;;;;25.75;16.48;101040.81;5101097;27;45506;-58
2022/04/18 16:34:00;;;;;;;;;5.00;3.50;;;;;25.87;16.99;101031.25;5101131;27;45239;-59
2022/04/18 16:36:26;;;;;;;;;3.00;3.00;;;;;25.95;16.93;101038.69;5101402;27;45327;-58
2022/04/18 16:38:51;;;;;;;;;2.75;2.75;;;;;26.04;16.92;101034.09;5101016;27;45442;-58
2022/04/18 16:46:44;;;;;;;;;2.50;2.50;;;;;26.15;16.77;101029.19;5100628;27;45528;-59
2022/04/18 16:49:12;;;;;;;;;1.75;1.75;;;;;26.08;16.54;101041.00;5101247;27;45323;-59
2022/04/18 16:51:40;;;;;;;;;2.75;2.75;;;;;26.08;17.22;101041.00;5100682;27;46052;-59
2022/04/18 16:54:08;;;;;;;;;3.00;3.00;;;;;26.04;17.09;101036.84;5101109;27;45354;-59
2022/04/18 16:56:37;;;;;;;;;1.75;1.75;;;;;26.00;17.23;101042.69;5100869;27;45381;-59
2022/04/18 16:59:03;;;;;;;;;3.00;3.00;;;;;25.95;16.92;101036.81;5100695;27;45461;-59
2022/04/18 17:01:29;;;;;;;;;2.00;2.00;;;;;25.85;16.90;101040.72;5100292;27;46865;-58
2022/04/18 17:03:54;;;;;;;;;1.50;1.50;;;;;25.67;17.40;101032.53;5100955;27;45247;-59
2022/04/18 17:06:20;;;;;;;;;2.75;1.75;;;;;25.55;17.88;101031.88;5099459;27;45359;-58
2022/04/18 17:08:47;;;;;;;;;2.00;2.00;;;;;25.46;18.33;101027.34;5101051;27;45422;-58
2022/04/18 17:11:13;;;;;;;;;3.50;2.25;;;;;25.32;18.20;101013.34;5100621;27;46171;-59
2022/04/18 17:13:38;;;;;;;;;2.50;2.50;;;;;25.18;18.78;101023.84;5100303;27;45395;-59
2022/04/18 17:16:05;;;;;;;;;3.75;2.75;;;;;25.05;19.23;101026.13;5100360;27;45259;-59
2022/04/18 17:18:31;;;;;;;;;3.50;3.50;;;;;24.91;19.78;101023.03;5100155;27;45335;-59
2022/04/18 17:20:56;;;;;;;;;2.75;2.75;;;;;24.65;20.24;101029.28;5098639;27;46091;-59
2022/04/18 17:23:21;;;;;;;;;2.00;2.00;;;;;24.49;20.79;101023.63;5098936;27;45416;-59
2022/04/18 17:25:47;;;;;;;;;3.25;3.25;;;;;24.35;20.89;101033.19;5099092;27;45447;-59
2022/04/18 17:28:12;;;;;;;;;3.75;3.00;;;;;24.06;21.13;101029.72;5098583;27;45528;-59
2022/04/18 17:30:39;;;;;;;;;2.50;2.50;;;;;23.85;21.35;101040.00;5098505;27;46088;-59
2022/04/18 17:33:04;;;;;;;;;2.00;2.00;;;;;23.61;21.93;101035.88;5098865;27;45511;-59
2022/04/18 17:35:29;;;;;;;;;2.25;2.25;;;;;23.27;22.31;101024.53;5100258;27;45353;-60
2022/04/18 17:37:55;;;;;;;;;4.25;2.50;;;;;23.15;22.74;101031.13;5100239;27;45600;-59
2022/04/18 17:40:20;;;;;;;;;4.00;2.00;;;;;23.11;22.78;101029.72;5100615;27;45325;-59
2022/04/18 17:42:45;;;;;;;;;2.25;2.25;;;;;23.00;22.70;101033.44;5099457;27;45404;-59
2022/04/18 17:45:11;;;;;;;;;3.00;3.00;;;;;22.99;23.25;101020.78;5100108;27;45302;-58
2022/04/18 17:47:36;;;;;;;;;3.50;3.00;;;;;22.83;23.13;101027.81;5097647;27;45472;-59
2022/04/18 17:50:02;;;;;;;;;4.25;3.00;;;;;22.71;23.27;101039.88;5098547;27;46128;-59
2022/04/18 17:52:28;;;;;;;;;2.75;2.00;;;;;22.55;23.81;101029.47;5098579;27;45396;-59
2022/04/18 17:57:37;;;;;;;;;2.50;2.50;;;;;22.27;24.55;101026.53;5096185;27;45398;-59
2022/04/18 18:00:04;;;;;;;;;2.75;2.75;;;;;22.20;24.40;101038.16;5098590;27;46071;-59
2022/04/18 18:02:30;;;;;;;;;2.25;2.25;;;;;22.15;24.83;101049.47;5099798;27;45355;-57
2022/04/18 18:04:55;;;;;;;;;5.25;4.00;;;;;22.14;25.23;101045.00;5099843;27;45492;-60
2022/04/18 18:07:20;;;;;;;;;5.50;3.00;;;;;22.05;24.90;101050.41;5099991;27;46041;-58
2022/04/18 18:09:46;;;;;;;;;1.50;1.25;;;;;22.00;24.79;101059.03;5099633;27;45388;-59
2022/04/18 18:12:12;;;;;;;;;4.00;3.00;;;;;21.82;25.58;101052.44;5099036;27;45429;-60
2022/04/18 18:14:37;;;;;;;;;2.75;2.75;;;;;21.77;25.23;101052.84;5099596;27;45447;-59
2022/04/18 18:17:03;;;;;;;;;4.00;3.25;;;;;21.72;25.55;101048.78;5099357;27;45465;-68
2022/04/18 18:19:29;;;;;;;;;3.25;1.50;;;;;21.71;25.82;101056.09;5099454;27;46113;-68
2022/04/18 18:21:54;;;;;;;;;8.25;5.25;;;;;21.70;25.64;101065.28;5099469;27;45391;-69
2022/04/18 18:24:20;;;;;;;;;4.25;3.75;;;;;21.67;25.94;101057.38;5099590;27;45386;-67
2022/04/18 18:26:46;;;;;;;;;3.75;3.75;;;;;21.67;25.75;101051.06;5099521;27;45327;-68
2022/04/18 18:29:13;;;;;;;;;3.00;3.00;;;;;21.68;25.78;101059.13;5099202;27;46281;-67
2022/04/18 18:31:38;;;;;;;;;5.00;4.00;;;;;21.58;26.18;101057.31;5099262;27;45393;-70
2022/04/18 18:34:03;;;;;;;;;3.00;3.00;;;;;21.47;26.46;101060.97;5099452;27;45218;-69
2022/04/18 18:36:31;;;;;;;;;3.50;3.50;;;;;21.43;26.05;101068.56;5099297;27;45276;-69
2022/04/18 18:38:57;;;;;;;;;4.50;4.25;;;;;21.41;26.68;101067.81;5099183;27;45924;-69
2022/04/18 18:41:22;;;;;;;;;3.75;3.75;;;;;21.42;26.83;101071.41;5099291;27;45290;-70
2022/04/18 18:43:47;;;;;;;;;5.25;3.50;;;;;21.42;26.29;101071.41;5099265;27;45339;-72
2022/04/18 18:46:14;;;;;;;;;4.00;4.00;;;;;21.36;26.33;101072.78;5098701;27;45473;-71
2022/04/18 18:48:39;;;;;;;;;0.00;0.00;;;;;21.32;26.41;101075.94;5099041;27;45375;-71
2022/04/18 18:53:49;;;;;;;;;4.50;3.50;;;;;21.17;26.76;101069.94;5099025;27;45366;-70
2022/04/18 18:56:14;;;;;;;;;3.00;3.00;;;;;21.19;26.62;101083.41;5098845;27;45425;-72
2022/04/18 18:58:40;;;;;;;;;3.50;3.50;;;;;21.16;26.38;101084.53;5099099;27;46554;-73
2022/04/18 19:01:05;;;;;;;;;3.75;3.00;;;;;21.09;26.73;101075.13;5099645;27;45349;-71
2022/04/18 19:03:31;;;;;;;;;4.75;3.00;;;;;21.07;26.76;101086.16;5099352;27;45361;-70
2022/04/18 19:05:56;;;;;;;;;3.50;2.50;;;;;21.03;26.24;101084.69;5098740;27;45586;-70
2022/04/18 19:08:23;;;;;;;;;3.75;3.00;;;;;20.95;26.54;101076.28;5098704;27;47043;-70
2022/04/18 19:10:49;;;;;;;;;3.00;3.00;;;;;20.96;26.50;101088.91;5098855;27;45321;-71
2022/04/18 19:13:14;;;;;;;;;2.25;2.25;;;;;20.88;26.64;101093.28;5099040;27;45349;-71
2022/04/18 19:15:40;;;;;;;;;3.75;3.75;;;;;20.86;26.84;101090.69;5098442;27;45440;-68
2022/04/18 19:26:26;;;;;;;;;6.00;4.00;;;;;20.72;26.88;101094.56;5098681;27;45315;-72
2022/04/18 19:28:56;;;;;;;;;1.75;1.75;;;;;20.72;27.02;101101.88;5099786;27;46158;-70
2022/04/18 19:31:25;;;;;;;;;3.00;3.00;;;;;20.65;27.53;101104.25;5101764;27;45285;-70
2022/04/18 19:33:51;;;;;;;;;6.00;4.00;;;;;20.64;27.50;101113.41;5102108;27;45489;-70
2022/04/18 19:36:22;;;;;;;;;4.00;4.00;;;;;20.55;27.68;101107.84;5102109;27;45403;-68
2022/04/18 19:38:49;;;;;;;;;4.00;4.00;;;;;20.56;27.78;101118.59;5102172;27;46489;-68
2022/04/18 19:41:15;;;;;;;;;4.50;4.50;;;;;20.49;27.58;101117.38;5101422;27;45381;-68
2022/04/18 19:43:41;;;;;;;;;5.00;3.75;;;;;20.46;28.02;101116.75;5102094;27;45408;-68
2022/04/18 19:46:07;;;;;;;;;9.75;6.00;;;;;20.41;32.62;101121.72;5101551;27;45380;-66
2022/04/18 19:48:34;;;;;;;;;8.00;8.00;;;;;20.24;33.92;101133.94;5101526;27;46249;-69
2022/04/18 19:51:00;;;;;;;;;13.75;11.00;;;;;20.12;36.97;101130.31;5101885;27;45244;-69
2022/04/18 19:53:25;;;;;;;;;12.50;12.50;;;;;20.08;39.29;101136.13;5101744;27;45410;-69
2022/04/18 19:55:51;;;;;;;;;18.00;18.00;;;;;20.05;41.67;101148.13;5101626;27;45235;-69
2022/04/18 19:58:17;;;;;;;;;22.75;17.75;;;;;19.96;42.84;101149.72;5101324;27;46269;-69
2022/04/18 20:00:42;;;;;;;;;21.00;18.75;;;;;19.80;45.42;101159.22;5101303;27;45469;-69
2022/04/18 20:03:08;;;;;;;;;23.50;20.50;;;;;19.47;45.98;101144.50;5101655;27;45376;-69
2022/04/18 20:05:34;;;;;;;;;23.00;19.50;;;;;19.35;47.25;101164.44;5099987;27;45433;-70
2022/04/18 20:07:59;;;;;;;;;21.50;20.25;;;;;19.19;47.29;101145.72;5101151;27;45577;-70
2022/04/18 20:10:25;;;;;;;;;24.75;17.75;;;;;19.13;47.60;101159.75;5101579;27;45321;-69
2022/04/18 20:12:51;;;;;;;;;23.00;18.50;;;;;19.04;48.52;101159.59;5101420;27;45943;-68
2022/04/18 20:15:31;;;;;;;;;32.00;24.50;;;;;18.86;48.98;101172.69;5101244;27;45445;-70
2022/04/18 20:18:18;;;;;;;;;22.75;19.75;;;;;18.71;49.94;101174.69;5101122;27;45318;-69
2022/04/18 20:20:51;;;;;;;;;26.25;21.00;;;;;18.60;50.04;101174.59;5101431;27;45306;-70
2022/04/18 20:23:17;;;;;;;;;23.00;21.00;;;;;18.45;49.90;101176.53;5099938;27;45315;-69
2022/04/18 20:25:42;;;;;;;;;27.50;22.75;;;;;18.44;50.16;101192.94;5101070;27;45503;-70
2022/04/18 20:28:09;;;;;;;;;27.50;23.00;;;;;18.23;51.21;101180.88;5100994;27;45467;-69
2022/04/18 20:30:35;;;;;;;;;20.75;20.50;;;;;18.13;50.72;101189.66;5100532;27;45484;-69
2022/04/18 20:33:03;;;;;;;;;27.25;21.00;;;;;18.14;50.92;101193.25;5101344;27;45369;-69
2022/04/18 20:35:28;;;;;;;;;27.75;21.75;;;;;18.05;51.05;101196.59;5100866;27;46022;-70
2022/04/18 20:37:54;;;;;;;;;22.50;22.50;;;;;17.95;51.71;101193.66;5100958;27;45556;-70
2022/04/18 20:40:19;;;;;;;;;22.75;20.25;;;;;17.91;51.14;101185.84;5100564;27;45260;-70
2022/04/18 20:42:45;;;;;;;;;22.75;20.50;;;;;17.90;51.68;101203.97;5101454;27;45344;-70
2022/04/18 20:45:11;;;;;;;;;24.50;21.00;;;;;17.79;51.60;101201.09;5099601;27;45561;-70
2022/04/18 20:47:37;;;;;;;;;29.75;22.75;;;;;17.65;52.22;101195.78;5101129;27;45289;-71
2022/04/18 20:50:03;;;;;;;;;21.00;19.00;;;;;17.58;52.20;101202.56;5101051;27;45331;-71
2022/04/18 21:00:49;;;;;;;;;33.00;28.00;;;;;17.21;54.18;101212.25;5100604;27;45429;-69
2022/04/18 21:03:15;;;;;;;;;25.00;23.00;;;;;17.19;53.71;101203.34;5100984;27;45200;-70
2022/04/18 21:05:40;;;;;;;;;28.00;22.50;;;;;17.17;53.50;101216.16;5100330;27;45476;-70
2022/04/18 21:08:06;;;;;;;;;25.00;21.50;;;;;17.12;53.11;101204.75;5100801;27;46418;-71
2022/04/18 21:10:33;;;;;;;;;25.00;21.50;;;;;17.17;53.67;101208.03;5100377;27;45180;-71
2022/04/18 21:13:00;;;;;;;;;24.25;21.75;;;;;17.17;53.89;101205.31;5100806;27;45297;-71
2022/04/18 21:15:26;;;;;;;;;26.75;23.75;;;;;17.21;53.17;101209.56;5099691;27;45575;-71
2022/04/18 21:17:55;;;;;;;;;31.25;24.50;;;;;17.07;53.81;101205.06;5100761;27;47533;-70
2022/04/18 21:20:21;;;;;;;;;24.25;20.25;;;;;17.11;53.75;101211.13;5100764;27;45325;-70
2022/04/18 21:22:48;;;;;;;;;26.50;25.00;;;;;17.17;53.46;101219.75;5100814;27;45255;-70
2022/04/18 21:25:13;;;;;;;;;28.00;26.50;;;;;17.15;53.18;101218.97;5100650;27;45399;-71
2022/04/18 21:27:38;;;;;;;;;24.75;22.00;;;;;17.11;52.62;101208.41;5100589;27;46088;-71
2022/04/18 21:30:04;;;;;;;;;28.25;22.25;;;;;17.20;52.33;101221.34;5100411;27;45364;-71
2022/04/18 21:32:31;;;;;;;;;30.50;25.75;;;;;17.08;52.60;101212.22;5100670;27;45432;-71
2022/04/18 21:34:57;;;;;;;;;29.25;27.25;;;;;17.08;52.76;101224.88;5100447;27;45415;-71
2022/04/18 21:37:22;;;;;;;;;21.50;16.75;;;;;17.06;52.59;101214.16;5100456;27;46305;-71
2022/04/18 21:39:48;;;;;;;;;23.00;21.00;;;;;17.08;52.23;101206.78;5100512;27;45355;-71
2022/04/18 21:42:13;;;;;;;;;28.25;22.50;;;;;17.12;51.88;101213.75;5100546;27;45349;-71
2022/04/18 21:44:38;;;;;;;;;20.50;18.25;;;;;17.10;51.69;101209.41;5100258;27;45232;-71
2022/04/18 21:47:04;;;;;;;;;22.00;20.25;;;;;17.09;51.28;101202.25;5100247;27;45293;-70
2022/04/18 21:49:29;;;;;;;;;19.00;16.25;;;;;17.11;51.19;101213.84;5100622;27;45273;-70
2022/04/18 21:51:55;;;;;;;;;18.50;15.50;;;;;17.15;50.93;101202.72;5099489;27;45284;-71
2022/04/18 21:54:20;;;;;;;;;18.25;14.50;;;;;16.96;50.96;101183.22;5100220;27;45240;-70
2022/04/18 21:56:46;;;;;;;;;20.50;17.25;;;;;17.03;51.14;101206.22;5100079;27;46026;-70
2022/04/18 21:59:12;;;;;;;;;19.25;16.00;;;;;17.04;50.93;101207.94;5100191;27;45324;-70
2022/04/18 22:01:39;;;;;;;;;16.25;16.25;;;;;16.97;50.81;101206.63;5099813;27;45450;-71
2022/04/18 22:04:05;;;;;;;;;21.00;19.00;;;;;16.86;51.15;101203.72;5100146;27;45715;-71
2022/04/18 22:06:31;;;;;;;;;16.25;14.50;;;;;16.81;51.39;101208.59;5099868;27;46298;-71
2022/04/18 22:08:58;;;;;;;;;17.00;13.75;;;;;16.79;51.06;101194.28;5099835;27;45339;-70
2022/04/18 22:11:25;;;;;;;;;19.00;13.75;;;;;16.85;50.98;101215.53;5099969;27;45338;-70
2022/04/18 22:13:51;;;;;;;;;19.50;14.25;;;;;16.80;51.14;101202.28;5099571;27;45347;-71
2022/04/18 22:16:17;;;;;;;;;6.00;6.00;;;;;16.70;51.23;101211.97;5099492;27;45411;-71
2022/04/18 22:24:53;;;;;;;;;20.50;16.50;;;;;16.70;51.06;101206.56;5099905;27;45226;-70
2022/04/18 22:26:58;;;;;;;;;9.25;8.50;;;;;16.73;50.70;101213.63;5099771;27;45888;-71
2022/04/18 22:29:23;;;;;;;;;15.25;11.75;;;;;16.71;50.45;101202.88;5099688;27;45354;-70
2022/04/18 22:31:48;;;;;;;;;13.50;12.00;;;;;16.72;50.60;101206.47;5099729;27;45552;-71
2022/04/18 22:34:14;;;;;;;;;13.25;11.75;;;;;16.69;50.59;101202.09;5099005;27;45489;-71
2022/04/18 22:36:39;;;;;;;;;15.50;12.00;;;;;16.70;50.42;101206.56;5099700;27;46009;-71
2022/04/18 22:39:04;;;;;;;;;15.00;12.50;;;;;16.68;50.63;101199.50;5099579;27;45250;-71
2022/04/18 22:41:30;;;;;;;;;14.00;12.25;;;;;16.67;50.55;101209.47;5099149;27;45337;-71
2022/04/18 22:43:55;;;;;;;;;14.25;11.25;;;;;16.61;50.48;101208.00;5099295;27;45611;-71
2022/04/18 22:46:21;;;;;;;;;14.25;12.00;;;;;16.50;50.67;101205.06;5099148;27;45882;-71
2022/04/18 22:48:46;;;;;;;;;13.00;11.00;;;;;16.47;50.75;101210.69;5099247;27;45329;-71
2022/04/18 22:51:12;;;;;;;;;15.50;9.50;;;;;16.38;50.82;101202.28;5099761;27;45486;-70
2022/04/18 22:53:37;;;;;;;;;12.25;11.00;;;;;16.24;51.19;101201.31;5097709;27;46241;-72
2022/04/18 22:56:02;;;;;;;;;12.00;10.75;;;;;16.28;51.10;101210.09;5099611;27;45370;-71
2022/04/18 22:58:28;;;;;;;;;14.50;13.00;;;;;16.23;51.40;101206.81;5099476;27;44677;-71
